Time;durP1;ratioP1;P1;durP2;ratioP2;P2;SDS_P1;SDS_P2;PMS_P1;PMS_P2;Temp;Humidity;BMP_temperature;BMP_pressure;BME280_temperature;BME280_humidity;BME280_pressure;Samples;Min_cycle;Max_cycle;Signal;HPM_P1;HPM_P2
2022/08/16 00:01:21;;;;;;;55.78;48.63;;;24.70;74.30;;;;;;4991669;28;20023;-71
2022/08/16 00:03:47;;;;;;;68.75;51.92;;;24.80;73.80;;;;;;4993073;28;20031;-72
2022/08/16 00:06:13;;;;;;;46.95;41.95;;;24.90;73.70;;;;;;4991002;28;20037;-72
2022/08/16 00:08:41;;;;;;;29.30;24.02;;;25.00;73.80;;;;;;4992711;28;20057;-71
2022/08/16 00:11:10;;;;;;;24.95;18.13;;;25.00;72.90;;;;;;4991597;28;20037;-71
2022/08/16 00:13:36;;;;;;;22.63;15.65;;;25.00;72.80;;;;;;4992728;28;20467;-72
2022/08/16 00:16:02;;;;;;;19.48;13.50;;;25.10;72.90;;;;;;4992236;28;20038;-72
2022/08/16 00:18:28;;;;;;;21.15;12.50;;;25.00;72.70;;;;;;4991687;28;20480;-72
2022/08/16 00:20:57;;;;;;;19.90;12.90;;;25.10;72.80;;;;;;4992679;28;20034;-72
2022/08/16 00:23:23;;;;;;;18.70;11.38;;;25.10;72.50;;;;;;4991636;28;20065;-72
2022/08/16 00:25:49;;;;;;;17.27;11.40;;;25.10;72.40;;;;;;4991759;28;20061;-71
2022/08/16 00:28:15;;;;;;;16.13;10.57;;;25.10;72.50;;;;;;4999990;23;20047;-71
2022/08/16 00:30:41;;;;;;;14.43;10.45;;;25.10;72.50;;;;;;4974984;28;20023;-71
2022/08/16 00:33:08;;;;;;;15.07;9.57;;;25.10;72.50;;;;;;4958993;28;20065;-70
2022/08/16 00:35:36;;;;;;;15.65;10.35;;;25.10;72.30;;;;;;4974265;28;20030;-73
2022/08/16 00:38:03;;;;;;;14.23;9.50;;;25.10;72.30;;;;;;4975188;28;20026;-73
2022/08/16 00:40:41;;;;;;;13.00;10.30;;;25.10;72.40;;;;;;4975038;28;20113;-73
2022/08/16 00:43:11;;;;;;;15.05;9.45;;;25.10;72.20;;;;;;4975191;28;20034;-73
2022/08/16 00:45:48;;;;;;;12.30;9.73;;;25.10;72.10;;;;;;4974163;28;20134;-74
2022/08/16 00:48:15;;;;;;;14.98;9.70;;;25.10;71.60;;;;;;4974829;28;20069;-73
2022/08/16 00:50:43;;;;;;;14.40;8.93;;;25.10;71.40;;;;;;4992358;28;20030;-73
2022/08/16 00:53:12;;;;;;;13.20;9.93;;;25.10;71.50;;;;;;4992278;28;20034;-73
2022/08/16 00:55:46;;;;;;;11.32;8.90;;;25.10;71.40;;;;;;4958282;28;20493;-73
2022/08/16 00:58:13;;;;;;;14.60;8.63;;;25.10;71.40;;;;;;4974968;28;20034;-73
2022/08/16 01:00:41;;;;;;;18.88;9.50;;;25.00;71.20;;;;;;4958862;28;20043;-73
2022/08/16 01:03:10;;;;;;;16.67;9.70;;;25.00;71.20;;;;;;4974897;28;20030;-74
2022/08/16 01:05:36;;;;;;;;;;;25.00;71.20;;;;;;4974520;28;20117;-74
2022/08/16 01:08:04;;;;;;;15.55;9.02;;;25.00;71.20;;;;;;4974865;28;19948;-74
2022/08/16 01:10:32;;;;;;;12.60;9.52;;;25.00;71.10;;;;;;4975042;28;20104;-74
2022/08/16 01:13:02;;;;;;;13.95;9.63;;;25.00;71.00;;;;;;4958845;28;20035;-74
2022/08/16 01:15:28;;;;;;;18.25;9.95;;;25.00;70.90;;;;;;4973831;28;20034;-74
2022/08/16 01:17:55;;;;;;;14.23;9.63;;;25.00;71.00;;;;;;4974333;28;20411;-74
2022/08/16 01:20:25;;;;;;;14.23;10.23;;;25.00;71.00;;;;;;4974676;28;20028;-74
2022/08/16 01:22:56;;;;;;;16.33;10.52;;;25.00;70.90;;;;;;4977649;28;20073;-74
2022/08/16 01:25:35;;;;;;;14.50;10.27;;;25.00;70.90;;;;;;4977731;28;20031;-74
2022/08/16 01:28:06;;;;;;;16.98;10.20;;;25.00;71.00;;;;;;4994431;28;20070;-74
2022/08/16 01:30:36;;;;;;;13.13;10.68;;;25.00;71.20;;;;;;4978397;28;20403;-74
2022/08/16 01:33:04;;;;;;;14.55;10.82;;;25.00;71.30;;;;;;4978275;28;20085;-74
2022/08/16 01:35:59;;;;;;;14.63;10.52;;;24.90;71.20;;;;;;4961518;28;20479;-74
2022/08/16 01:38:40;;;;;;;13.02;10.68;;;24.90;71.30;;;;;;4962056;28;20030;-74
2022/08/16 01:41:22;;;;;;;14.25;10.63;;;25.00;71.10;;;;;;4978210;28;20049;-74
2022/08/16 01:43:51;;;;;;;13.57;10.63;;;24.90;71.10;;;;;;4978161;28;20097;-73
2022/08/16 01:46:41;;;;;;;14.50;10.90;;;24.90;71.40;;;;;;4977177;28;20026;-74
2022/08/16 01:49:20;;;;;;;16.52;11.23;;;24.90;71.50;;;;;;4962119;28;20046;-74
2022/08/16 01:51:52;;;;;;;14.30;10.43;;;24.90;71.30;;;;;;4977956;28;20046;-74
2022/08/16 01:54:24;;;;;;;19.33;10.98;;;24.90;71.30;;;;;;4977939;28;20537;-74
2022/08/16 01:56:51;;;;;;;14.23;10.75;;;24.90;71.40;;;;;;4977072;28;20505;-73
2022/08/16 01:59:19;;;;;;;15.40;11.07;;;24.90;71.70;;;;;;4977705;28;20491;-74
2022/08/16 02:01:49;;;;;;;14.02;11.02;;;24.90;71.50;;;;;;4993966;28;20049;-73
2022/08/16 02:04:16;;;;;;;14.68;11.73;;;24.90;71.60;;;;;;4961616;28;20030;-74
2022/08/16 02:06:42;;;;;;;14.68;11.50;;;24.80;71.50;;;;;;4993074;28;20116;-73
2022/08/16 02:09:10;;;;;;;13.88;11.20;;;24.80;71.50;;;;;;4961522;28;20074;-74
2022/08/16 02:11:37;;;;;;;14.48;11.43;;;24.90;71.60;;;;;;4977532;28;20048;-74
2022/08/16 02:14:04;;;;;;;15.70;11.32;;;24.80;71.50;;;;;;4961406;28;20045;-73
2022/08/16 02:16:30;;;;;;;16.00;11.40;;;24.80;71.30;;;;;;4992930;28;20026;-73
2022/08/16 02:18:59;;;;;;;15.82;11.75;;;24.80;71.40;;;;;;4994947;28;20081;-73
2022/08/16 02:21:25;;;;;;;15.65;11.38;;;24.80;71.40;;;;;;4977333;28;20494;-73
2022/08/16 02:23:51;;;;;;;16.48;11.68;;;24.80;71.50;;;;;;4961492;28;20026;-73
2022/08/16 02:26:17;;;;;;;15.85;12.38;;;24.80;71.40;;;;;;4976479;28;20100;-73
2022/08/16 02:28:43;;;;;;;16.13;11.13;;;24.80;71.60;;;;;;4977118;28;20038;-73
2022/08/16 02:31:11;;;;;;;18.77;12.65;;;24.80;71.60;;;;;;4977258;28;20113;-73
2022/08/16 02:33:38;;;;;;;14.73;11.20;;;24.80;71.50;;;;;;4976214;28;20030;-73
2022/08/16 02:36:05;;;;;;;13.75;11.50;;;24.80;71.50;;;;;;4976386;28;20026;-73
2022/08/16 02:38:33;;;;;;;14.80;11.60;;;24.80;71.50;;;;;;4960966;28;20045;-73
2022/08/16 02:41:01;;;;;;;14.57;11.77;;;24.80;71.60;;;;;;4977153;28;20022;-73
2022/08/16 02:43:30;;;;;;;15.52;11.07;;;24.80;71.90;;;;;;4961144;28;20038;-73
2022/08/16 02:45:57;;;;;;;14.38;11.60;;;24.90;71.30;;;;;;4993593;28;20498;-74
2022/08/16 02:48:25;;;;;;;16.42;12.10;;;24.80;71.40;;;;;;4977066;28;20030;-73
2022/08/16 02:50:54;;;;;;;17.67;11.70;;;24.80;71.30;;;;;;4976992;28;20035;-73
2022/08/16 02:53:20;;;;;;;14.77;11.40;;;24.80;71.40;;;;;;4976765;28;20034;-73
2022/08/16 02:55:46;;;;;;;15.00;11.98;;;24.80;71.50;;;;;;4960193;28;20076;-73
2022/08/16 02:58:12;;;;;;;14.75;11.95;;;24.80;71.90;;;;;;4976650;28;20421;-74
2022/08/16 03:00:38;;;;;;;14.63;11.90;;;24.80;71.50;;;;;;4960673;28;20081;-74
2022/08/16 03:03:05;;;;;;;14.25;11.80;;;24.80;71.40;;;;;;4976777;28;20391;-73
2022/08/16 03:05:31;;;;;;;16.40;11.13;;;24.80;71.50;;;;;;4975765;28;20510;-74
2022/08/16 03:07:59;;;;;;;17.63;12.77;;;24.80;71.60;;;;;;4960523;28;20026;-73
2022/08/16 03:10:26;;;;;;;16.85;11.95;;;24.80;71.40;;;;;;4976605;28;20038;-74
2022/08/16 03:12:52;;;;;;;16.15;12.00;;;24.70;71.50;;;;;;4960343;28;20030;-73
2022/08/16 03:15:18;;;;;;;14.70;12.27;;;24.70;71.40;;;;;;4975763;28;20030;-74
2022/08/16 03:17:45;;;;;;;17.35;12.00;;;24.70;71.50;;;;;;4993737;28;20037;-73
2022/08/16 03:20:14;;;;;;;14.18;11.57;;;24.70;71.50;;;;;;4992590;28;20037;-74
2022/08/16 03:22:41;;;;;;;15.63;11.88;;;24.70;71.60;;;;;;4992644;28;20101;-74
2022/08/16 03:25:13;;;;;;;19.58;12.80;;;24.70;71.70;;;;;;4959405;28;20450;-74
2022/08/16 03:27:43;;;;;;;17.75;12.43;;;24.70;71.70;;;;;;4976637;28;20475;-74
2022/08/16 03:30:20;;;;;;;16.00;12.40;;;24.70;71.70;;;;;;4976245;28;20023;-73
2022/08/16 03:33:06;;;;;;;14.70;11.98;;;24.70;71.60;;;;;;4993035;28;20082;-73
2022/08/16 03:35:40;;;;;;;16.02;12.52;;;24.70;71.80;;;;;;4959957;28;20030;-73
2022/08/16 03:38:17;;;;;;;19.02;12.57;;;24.60;71.70;;;;;;4976089;28;20477;-73
2022/08/16 03:40:47;;;;;;;15.75;12.10;;;24.60;71.70;;;;;;4944646;28;20034;-73
2022/08/16 03:43:13;;;;;;;18.70;12.70;;;24.60;71.70;;;;;;4975868;28;20372;-73
2022/08/16 03:45:40;;;;;;;16.92;12.77;;;24.60;71.80;;;;;;4958790;28;20117;-73
2022/08/16 03:48:08;;;;;;;16.23;12.60;;;24.60;71.80;;;;;;4960018;28;20561;-73
2022/08/16 03:50:36;;;;;;;15.43;11.95;;;24.60;71.80;;;;;;4959877;28;20030;-73
2022/08/16 03:53:03;;;;;;;15.57;12.63;;;24.60;71.80;;;;;;4959751;28;20034;-73
2022/08/16 03:55:29;;;;;;;15.57;11.90;;;24.60;71.80;;;;;;4959001;28;20095;-74
2022/08/16 03:57:55;;;;;;;16.13;12.70;;;24.60;71.80;;;;;;4975550;28;20447;-73
2022/08/16 04:00:27;;;;;;;18.90;12.60;;;24.60;71.80;;;;;;4975830;28;20042;-74
2022/08/16 04:02:56;;;;;;;13.43;11.85;;;24.60;71.90;;;;;;4975593;28;20038;-73
2022/08/16 04:05:23;;;;;;;20.15;13.13;;;24.60;71.90;;;;;;4991051;28;20050;-73
2022/08/16 04:07:49;;;;;;;16.90;12.25;;;24.60;71.80;;;;;;4959457;28;20404;-73
2022/08/16 04:10:15;;;;;;;16.40;12.82;;;24.60;72.00;;;;;;4975425;28;20045;-73
2022/08/16 04:12:44;;;;;;;16.25;12.95;;;24.60;71.90;;;;;;4975385;28;20037;-72
2022/08/16 04:15:12;;;;;;;18.35;12.77;;;24.60;71.90;;;;;;4958779;28;20031;-73
2022/08/16 04:17:43;;;;;;;19.40;12.85;;;24.60;71.90;;;;;;4975314;28;20168;-73
2022/08/16 04:20:12;;;;;;;15.18;12.60;;;24.60;72.00;;;;;;4943658;28;20391;-73
2022/08/16 04:22:41;;;;;;;15.67;12.37;;;24.60;72.00;;;;;;4975451;28;20589;-73
2022/08/16 04:25:07;;;;;;;16.70;13.07;;;24.60;72.00;;;;;;4974610;28;20033;-72
2022/08/16 04:27:35;;;;;;;15.85;12.80;;;24.60;72.00;;;;;;4975075;28;20030;-73
2022/08/16 04:30:05;;;;;;;15.60;12.65;;;24.60;72.10;;;;;;4975265;28;20045;-72
2022/08/16 04:32:36;;;;;;;16.10;13.38;;;24.60;72.00;;;;;;4959807;28;20089;-73
2022/08/16 04:35:06;;;;;;;17.30;13.90;;;24.60;72.20;;;;;;4974730;28;20482;-73
2022/08/16 04:37:33;;;;;;;15.82;12.82;;;24.60;72.00;;;;;;4974962;28;20034;-73
2022/08/16 04:40:10;;;;;;;16.85;12.90;;;24.60;72.10;;;;;;4975270;28;20398;-73
2022/08/16 04:42:39;;;;;;;17.52;13.73;;;24.60;72.10;;;;;;4975121;28;20491;-73
2022/08/16 04:45:07;;;;;;;17.00;12.70;;;24.60;72.10;;;;;;4974722;28;20045;-73
2022/08/16 04:47:34;;;;;;;17.80;13.00;;;24.60;72.10;;;;;;4975035;28;20065;-73
2022/08/16 04:50:18;;;;;;;17.88;12.23;;;24.60;72.10;;;;;;4991129;28;20038;-73
2022/08/16 04:52:59;;;;;;;16.98;14.25;;;24.60;72.20;;;;;;4974992;28;20030;-74
2022/08/16 04:55:30;;;;;;;25.83;22.38;;;24.60;72.20;;;;;;4974142;28;20110;-74
2022/08/16 04:57:56;;;;;;;27.20;21.85;;;24.60;72.10;;;;;;4961741;28;20070;-74
2022/08/16 05:00:32;;;;;;;24.65;21.38;;;24.60;72.00;;;;;;4947022;28;20058;-73
2022/08/16 05:03:06;;;;;;;21.48;18.58;;;24.60;71.90;;;;;;4970138;28;20395;-73
2022/08/16 05:05:40;;;;;;;20.67;16.10;;;24.60;71.90;;;;;;4957747;28;20483;-73
2022/08/16 05:08:07;;;;;;;21.95;15.93;;;24.60;71.90;;;;;;4958426;28;20101;-73
2022/08/16 05:10:34;;;;;;;19.02;14.80;;;24.60;71.90;;;;;;4958973;28;20035;-74
2022/08/16 05:13:02;;;;;;;20.92;17.55;;;24.60;71.70;;;;;;4958812;28;20070;-74
2022/08/16 05:15:28;;;;;;;25.65;18.42;;;24.60;71.70;;;;;;4942677;28;20039;-74
2022/08/16 05:17:54;;;;;;;22.20;17.83;;;24.60;71.60;;;;;;4943261;28;20066;-74
2022/08/16 05:20:21;;;;;;;21.48;16.63;;;24.60;71.70;;;;;;4959402;28;20046;-74
2022/08/16 05:22:47;;;;;;;18.88;16.15;;;24.60;71.70;;;;;;4959056;28;20038;-74
2022/08/16 05:25:17;;;;;;;20.70;15.75;;;24.60;71.70;;;;;;4958199;28;20047;-74
2022/08/16 05:27:49;;;;;;;18.10;14.77;;;24.60;71.60;;;;;;4958946;28;20073;-74
2022/08/16 05:30:17;;;;;;;19.48;14.80;;;24.60;71.60;;;;;;4959154;28;20054;-74
2022/08/16 05:32:44;;;;;;;19.15;14.50;;;24.60;71.50;;;;;;4958952;28;20499;-75
2022/08/16 05:35:13;;;;;;;16.15;13.82;;;24.60;71.40;;;;;;4942293;28;20034;-75
2022/08/16 05:38:05;;;;;;;19.92;15.00;;;24.60;71.60;;;;;;4958459;28;20031;-75
2022/08/16 05:40:33;;;;;;;19.98;16.92;;;24.60;71.40;;;;;;4942953;28;20035;-74
2022/08/16 05:42:59;;;;;;;19.23;16.70;;;24.60;71.30;;;;;;4958777;28;20026;-75
2022/08/16 05:45:25;;;;;;;20.27;16.40;;;24.70;72.00;;;;;;4958047;28;20037;-74
2022/08/16 05:47:55;;;;;;;19.23;16.00;;;24.70;71.40;;;;;;4927492;28;20037;-74
2022/08/16 05:50:21;;;;;;;19.55;16.10;;;24.70;71.50;;;;;;4958626;28;20445;-74
2022/08/16 05:52:48;;;;;;;19.33;15.25;;;24.70;71.50;;;;;;4942665;28;20073;-74
2022/08/16 05:55:15;;;;;;;19.55;15.55;;;24.70;71.40;;;;;;4957676;28;20031;-74
2022/08/16 05:57:41;;;;;;;20.10;14.70;;;24.80;71.30;;;;;;4958411;28;20034;-74
2022/08/16 06:00:11;;;;;;;16.48;13.40;;;24.70;71.20;;;;;;4975880;28;20027;-74
2022/08/16 06:02:41;;;;;;;18.20;13.93;;;24.70;71.20;;;;;;4975612;28;20157;-74
2022/08/16 06:05:27;;;;;;;18.40;14.10;;;24.70;70.80;;;;;;4957616;28;20047;-74
2022/08/16 06:07:53;;;;;;;16.92;13.73;;;24.80;70.80;;;;;;4942442;28;20476;-73
2022/08/16 06:10:26;;;;;;;16.67;13.85;;;24.80;70.80;;;;;;4958525;28;20038;-74
2022/08/16 06:12:52;;;;;;;17.65;14.55;;;24.80;70.50;;;;;;4958169;28;20041;-74
2022/08/16 06:15:20;;;;;;;18.15;14.65;;;24.80;70.70;;;;;;4957292;28;20022;-74
2022/08/16 06:17:46;;;;;;;18.15;14.98;;;24.80;70.60;;;;;;4941586;28;20030;-74
2022/08/16 06:20:21;;;;;;;23.17;16.90;;;24.80;70.80;;;;;;4958449;28;20031;-74
2022/08/16 06:22:48;;;;;;;23.48;18.55;;;24.80;70.70;;;;;;4958072;28;20105;-74
2022/08/16 06:25:15;;;;;;;24.35;16.75;;;24.80;70.60;;;;;;4957231;28;20037;-74
2022/08/16 06:27:45;;;;;;;21.17;16.60;;;24.80;70.80;;;;;;4943320;28;20046;-74
2022/08/16 06:30:12;;;;;;;18.02;15.32;;;24.80;70.50;;;;;;4940574;29;20047;-71
2022/08/16 06:32:39;;;;;;;18.40;14.85;;;24.80;70.50;;;;;;4919854;29;20111;-71
2022/08/16 06:35:06;;;;;;;18.20;15.07;;;24.80;70.70;;;;;;4935127;29;20451;-71
2022/08/16 06:37:34;;;;;;;18.55;15.15;;;24.90;70.80;;;;;;4919819;29;20067;-71
2022/08/16 06:40:00;;;;;;;16.60;14.45;;;24.90;71.00;;;;;;4900952;29;20055;-71
2022/08/16 06:42:31;;;;;;;18.00;14.90;;;24.90;70.90;;;;;;4900715;29;20119;-71
2022/08/16 06:45:10;;;;;;;17.27;14.18;;;24.90;71.00;;;;;;4884513;29;20047;-71
2022/08/16 06:47:46;;;;;;;18.58;14.82;;;24.90;71.10;;;;;;4900547;29;20119;-71
2022/08/16 06:50:12;;;;;;;18.15;13.50;;;24.90;71.00;;;;;;4900801;29;20160;-71
2022/08/16 06:52:43;;;;;;;17.17;13.23;;;25.00;70.80;;;;;;4900436;29;20043;-71
2022/08/16 06:55:13;;;;;;;16.88;13.00;;;25.00;71.00;;;;;;4899706;29;20032;-71
2022/08/16 06:57:44;;;;;;;16.13;12.30;;;25.00;70.90;;;;;;4900423;29;20032;-71
2022/08/16 07:00:13;;;;;;;19.27;12.93;;;25.00;70.70;;;;;;4900585;29;20083;-71
2022/08/16 07:02:48;;;;;;;17.90;12.60;;;25.00;70.60;;;;;;4900379;29;20040;-71
2022/08/16 07:05:15;;;;;;;18.42;12.40;;;25.10;70.80;;;;;;4899460;29;20127;-71
2022/08/16 07:07:47;;;;;;;16.33;12.50;;;25.00;70.60;;;;;;4900172;29;20063;-71
2022/08/16 07:10:13;;;;;;;18.87;14.03;;;25.10;70.30;;;;;;4900315;29;20032;-71
2022/08/16 07:12:39;;;;;;;16.73;12.98;;;25.10;70.40;;;;;;4917348;29;20043;-71
2022/08/16 07:15:06;;;;;;;26.35;13.13;;;25.10;70.10;;;;;;4899849;29;20031;-71
2022/08/16 07:17:32;;;;;;;17.23;12.23;;;25.10;70.00;;;;;;4915995;29;20032;-71
2022/08/16 07:19:59;;;;;;;16.45;13.32;;;25.20;69.80;;;;;;4899294;29;20028;-71
2022/08/16 07:22:30;;;;;;;17.40;12.90;;;25.20;69.60;;;;;;4900053;29;20028;-71
2022/08/16 07:24:57;;;;;;;15.13;12.18;;;25.20;69.60;;;;;;4899834;29;20084;-70
2022/08/16 07:27:23;;;;;;;16.23;12.63;;;25.30;69.60;;;;;;4899179;29;20032;-71
2022/08/16 07:29:49;;;;;;;16.42;11.38;;;25.20;69.30;;;;;;4899643;29;20457;-71
2022/08/16 07:32:17;;;;;;;15.73;12.55;;;25.30;69.40;;;;;;4899731;29;20088;-71
2022/08/16 07:34:44;;;;;;;15.00;11.45;;;25.30;69.10;;;;;;4900176;29;20103;-71
2022/08/16 07:37:11;;;;;;;15.13;11.00;;;25.30;69.00;;;;;;4899096;29;20497;-71
2022/08/16 07:39:53;;;;;;;15.75;11.40;;;25.30;68.90;;;;;;4884022;29;20032;-71
2022/08/16 07:42:20;;;;;;;14.95;11.20;;;25.30;69.20;;;;;;4899659;29;20032;-71
2022/08/16 07:44:47;;;;;;;15.50;11.15;;;25.40;69.00;;;;;;4884219;29;20393;-71
2022/08/16 07:47:13;;;;;;;16.45;11.88;;;25.30;69.30;;;;;;4898820;29;20044;-71
2022/08/16 07:49:40;;;;;;;20.48;11.75;;;25.40;69.20;;;;;;4899494;29;20032;-71
2022/08/16 07:52:06;;;;;;;15.82;12.02;;;25.40;69.10;;;;;;4899375;29;20115;-71
2022/08/16 07:54:32;;;;;;;16.70;10.85;;;25.40;69.40;;;;;;4899358;29;20044;-71
2022/08/16 07:57:03;;;;;;;16.63;11.52;;;25.50;69.00;;;;;;4898541;29;20501;-71
2022/08/16 07:59:30;;;;;;;16.42;11.48;;;25.50;69.30;;;;;;4899237;29;20367;-71
2022/08/16 08:01:56;;;;;;;15.90;11.32;;;25.50;69.00;;;;;;4916154;29;20020;-71
2022/08/16 08:04:25;;;;;;;14.23;10.95;;;25.50;69.00;;;;;;4899241;29;20032;-71
2022/08/16 08:06:51;;;;;;;17.00;11.63;;;25.50;69.20;;;;;;4898511;29;20445;-71
2022/08/16 08:09:18;;;;;;;16.48;11.25;;;25.60;69.40;;;;;;4899220;29;20088;-71
2022/08/16 08:11:45;;;;;;;15.23;11.25;;;25.60;68.80;;;;;;4899110;29;20040;-71
2022/08/16 08:14:11;;;;;;;14.23;10.95;;;25.50;69.20;;;;;;4899255;29;20036;-71
2022/08/16 08:16:44;;;;;;;15.52;12.10;;;25.60;69.40;;;;;;4898294;29;20028;-70
2022/08/16 08:19:13;;;;;;;16.77;11.88;;;25.70;69.90;;;;;;4898934;29;20028;-73
2022/08/16 08:21:42;;;;;;;15.57;11.93;;;25.70;70.00;;;;;;4899305;29;20465;-73
2022/08/16 08:24:11;;;;;;;13.38;10.98;;;25.70;69.30;;;;;;4891398;29;20065;-72
2022/08/16 08:26:40;;;;;;;18.25;11.27;;;25.60;69.10;;;;;;4879367;29;20067;-73
2022/08/16 08:29:06;;;;;;;18.05;11.70;;;25.60;69.50;;;;;;4864602;29;20036;-74
2022/08/16 08:31:35;;;;;;;16.17;12.07;;;25.70;69.40;;;;;;4863986;29;20401;-73
2022/08/16 08:34:03;;;;;;;15.65;11.30;;;25.70;69.70;;;;;;4880077;29;20033;-73
2022/08/16 08:36:33;;;;;;;15.23;11.80;;;25.70;70.10;;;;;;4879282;29;20029;-73
2022/08/16 08:39:04;;;;;;;15.95;11.27;;;25.90;70.10;;;;;;4879885;29;20482;-73
2022/08/16 08:41:30;;;;;;;12.65;10.90;;;25.80;69.40;;;;;;4880220;29;20035;-73
2022/08/16 08:43:59;;;;;;;17.60;11.32;;;25.80;69.40;;;;;;4879923;29;20033;-73
2022/08/16 08:46:25;;;;;;;13.60;11.27;;;25.80;69.00;;;;;;4879174;29;20029;-73
2022/08/16 08:48:54;;;;;;;18.13;11.05;;;25.80;68.50;;;;;;4879748;29;20048;-73
2022/08/16 08:51:22;;;;;;;16.30;10.98;;;25.80;68.70;;;;;;4864517;29;20041;-71
2022/08/16 08:53:53;;;;;;;15.65;11.18;;;25.80;68.30;;;;;;4879843;29;20037;-72
2022/08/16 08:56:19;;;;;;;14.20;10.40;;;25.80;68.20;;;;;;4895773;29;20025;-72
2022/08/16 08:58:46;;;;;;;13.68;10.23;;;25.90;68.70;;;;;;4879945;29;20039;-72
2022/08/16 09:01:24;;;;;;;16.92;10.48;;;25.90;69.30;;;;;;4879898;29;20033;-72
2022/08/16 09:03:50;;;;;;;14.15;10.48;;;25.90;68.90;;;;;;4879841;29;20033;-72
2022/08/16 09:06:17;;;;;;;14.45;10.65;;;25.90;68.70;;;;;;4878819;29;20127;-72
2022/08/16 09:08:43;;;;;;;17.42;10.98;;;25.90;68.70;;;;;;4864441;29;20123;-72
2022/08/16 09:11:12;;;;;;;16.20;10.45;;;25.90;68.20;;;;;;4879841;29;20068;-72
2022/08/16 09:13:39;;;;;;;13.15;9.95;;;25.90;68.20;;;;;;4879935;29;20044;-72
2022/08/16 09:16:06;;;;;;;14.90;10.68;;;25.90;68.40;;;;;;4863547;29;20223;-72
2022/08/16 09:18:34;;;;;;;13.77;9.98;;;25.90;68.30;;;;;;4879687;29;20032;-72
2022/08/16 09:20:59;;;;;;;16.00;10.30;;;25.90;68.00;;;;;;4879792;29;20032;-73
2022/08/16 09:23:30;;;;;;;14.38;10.85;;;26.00;67.20;;;;;;4896437;29;20056;-72
2022/08/16 09:25:56;;;;;;;11.90;10.15;;;26.00;67.20;;;;;;4863548;29;20537;-72
2022/08/16 09:28:23;;;;;;;18.73;9.98;;;26.00;67.10;;;;;;4864197;29;20033;-71
2022/08/16 09:31:01;;;;;;;13.15;9.93;;;26.20;68.30;;;;;;4865673;29;20104;-71
2022/08/16 09:33:27;;;;;;;15.77;10.82;;;26.20;68.30;;;;;;4896223;29;20144;-72
2022/08/16 09:35:53;;;;;;;16.25;11.40;;;26.20;68.40;;;;;;4895518;29;20092;-72
2022/08/16 09:38:18;;;;;;;17.60;11.80;;;26.20;67.40;;;;;;4896161;29;20036;-72
2022/08/16 09:40:46;;;;;;;26.50;11.98;;;26.30;67.10;;;;;;4902941;29;20043;-72
2022/08/16 09:43:17;;;;;;;24.08;15.40;;;26.20;66.80;;;;;;4906723;29;20032;-72
2022/08/16 09:45:44;;;;;;;41.88;29.73;;;26.20;67.10;;;;;;4890622;29;20072;-71
2022/08/16 09:48:11;;;;;;;32.90;21.48;;;26.20;66.70;;;;;;4909444;29;20044;-71
2022/08/16 09:50:38;;;;;;;25.52;18.08;;;26.30;65.70;;;;;;4890352;29;20037;-72
2022/08/16 09:53:12;;;;;;;20.33;14.95;;;26.30;66.10;;;;;;4908594;29;20086;-72
2022/08/16 09:55:39;;;;;;;20.92;13.32;;;26.20;65.80;;;;;;4908289;29;20103;-72
2022/08/16 09:58:05;;;;;;;19.13;12.15;;;26.20;65.40;;;;;;4908135;29;20047;-72
2022/08/16 10:00:31;;;;;;;19.00;10.98;;;26.30;65.10;;;;;;4901497;29;20497;-72
2022/08/16 10:02:57;;;;;;;16.35;10.25;;;26.30;65.00;;;;;;4918211;29;20493;-71
2022/08/16 10:05:23;;;;;;;18.52;11.45;;;26.40;64.80;;;;;;4900446;29;20032;-72
2022/08/16 10:07:51;;;;;;;14.68;10.57;;;26.30;65.60;;;;;;4915861;29;20047;-72
2022/08/16 10:10:21;;;;;;;15.63;11.25;;;26.30;65.20;;;;;;4900198;29;20135;-72
2022/08/16 10:15:33;;;;;;;13.02;10.68;;;26.10;63.20;;;;;;4917221;29;20055;-71
2022/08/16 10:18:01;;;;;;;16.15;11.07;;;26.00;62.90;;;;;;4918100;29;20028;-72
2022/08/16 10:20:27;;;;;;;15.10;10.23;;;26.00;63.10;;;;;;4885548;29;20103;-72
2022/08/16 10:22:53;;;;;;;16.48;10.27;;;26.00;65.10;;;;;;4917982;29;20024;-72
2022/08/16 10:25:20;;;;;;;19.60;9.52;;;26.20;64.60;;;;;;4915648;29;20041;-72
2022/08/16 10:27:46;;;;;;;16.98;10.38;;;26.40;64.80;;;;;;4917587;29;20036;-71
2022/08/16 10:30:13;;;;;;;15.70;10.07;;;26.50;62.00;;;;;;4928441;29;20040;-71
2022/08/16 10:32:39;;;;;;;15.88;9.95;;;26.50;62.40;;;;;;4918557;29;20079;-71
2022/08/16 10:35:05;;;;;;;18.20;9.63;;;26.50;62.40;;;;;;4918430;29;20511;-71
2022/08/16 10:37:31;;;;;;;16.08;9.80;;;26.70;73.10;;;;;;4919480;29;20114;-71
2022/08/16 10:39:57;;;;;;;17.95;11.30;;;26.60;73.30;;;;;;4917001;29;20148;-71
2022/08/16 10:42:23;;;;;;;14.13;10.20;;;26.70;73.80;;;;;;4917548;29;20020;-71
2022/08/16 10:44:49;;;;;;;13.05;9.25;;;;;;;;;;4900605;29;20024;-71
2022/08/16 10:47:15;;;;;;;15.13;9.50;;;26.70;59.70;;;;;;4900153;29;20044;-71
2022/08/16 10:49:41;;;;;;;13.07;9.32;;;26.90;60.30;;;;;;4917386;29;20024;-71
2022/08/16 10:52:06;;;;;;;14.10;9.52;;;26.80;60.00;;;;;;4899821;29;20079;-71
2022/08/16 10:54:33;;;;;;;13.68;9.20;;;26.60;60.50;;;;;;4916273;29;20072;-71
2022/08/16 10:57:02;;;;;;;13.88;10.05;;;26.60;61.10;;;;;;4916580;29;20036;-71
2022/08/16 10:59:30;;;;;;;15.15;9.48;;;26.40;59.90;;;;;;4916087;29;20037;-71
2022/08/16 11:01:57;;;;;;;14.93;9.98;;;26.30;61.50;;;;;;4900193;29;20047;-71
2022/08/16 11:04:23;;;;;;;14.95;10.48;;;26.30;60.50;;;;;;4917257;29;20036;-71
2022/08/16 11:06:48;;;;;;;15.68;9.73;;;26.30;60.50;;;;;;4916578;29;20052;-71
2022/08/16 11:09:14;;;;;;;17.60;11.98;;;26.20;60.60;;;;;;4900096;29;20083;-72
2022/08/16 11:11:40;;;;;;;22.05;14.45;;;26.30;61.30;;;;;;4917133;29;20115;-71
2022/08/16 11:14:06;;;;;;;30.33;22.77;;;26.40;62.00;;;;;;4916977;29;20067;-71
2022/08/16 11:16:32;;;;;;;32.25;27.50;;;26.70;60.80;;;;;;4916245;29;20031;-71
2022/08/16 11:18:58;;;;;;;25.83;20.95;;;26.80;59.70;;;;;;4916574;29;20103;-71
2022/08/16 11:21:24;;;;;;;23.48;18.08;;;26.90;60.20;;;;;;4898873;29;20035;-71
2022/08/16 11:23:54;;;;;;;21.00;12.40;;;26.80;59.70;;;;;;4899645;29;20437;-71
2022/08/16 11:26:21;;;;;;;;;;;26.60;58.90;;;;;;4914702;29;20437;-71
2022/08/16 11:28:49;;;;;;;21.95;15.70;;;26.60;59.60;;;;;;4916513;29;19915;-71
2022/08/16 11:31:18;;;;;;;23.08;14.02;;;26.60;58.50;;;;;;4899674;29;20489;-72
2022/08/16 11:33:44;;;;;;;22.92;12.80;;;26.70;58.50;;;;;;4899519;29;20032;-72
2022/08/16 11:36:10;;;;;;;21.73;12.30;;;26.60;59.40;;;;;;4898688;29;20028;-72
2022/08/16 11:38:35;;;;;;;19.95;12.98;;;26.60;59.30;;;;;;4916410;29;20111;-72
2022/08/16 11:41:02;;;;;;;16.70;11.50;;;26.60;59.50;;;;;;4884072;29;20079;-72
2022/08/16 11:43:31;;;;;;;14.40;10.07;;;26.60;59.10;;;;;;4915461;29;20040;-72
2022/08/16 11:45:59;;;;;;;15.15;11.18;;;26.60;58.70;;;;;;4898693;29;20055;-72
2022/08/16 11:48:28;;;;;;;14.50;10.23;;;26.70;58.80;;;;;;4915491;29;20508;-72
2022/08/16 11:50:55;;;;;;;14.90;10.03;;;26.60;58.90;;;;;;4916440;29;20055;-72
2022/08/16 11:53:23;;;;;;;15.77;9.50;;;26.60;58.50;;;;;;4916313;29;20630;-72
2022/08/16 11:55:52;;;;;;;15.48;9.55;;;26.50;58.00;;;;;;4915848;29;20032;-72
2022/08/16 11:58:18;;;;;;;14.75;9.82;;;26.50;57.70;;;;;;4916264;29;20622;-72
2022/08/16 12:00:45;;;;;;;13.95;9.73;;;26.40;58.40;;;;;;4899473;29;20170;-72
2022/08/16 12:03:12;;;;;;;18.35;10.45;;;26.40;58.60;;;;;;4915215;29;20038;-72
2022/08/16 12:05:40;;;;;;;18.77;9.60;;;26.40;59.30;;;;;;4915187;29;20035;-72
2022/08/16 12:08:06;;;;;;;14.73;9.07;;;26.40;59.00;;;;;;4916137;29;20385;-72
2022/08/16 12:10:34;;;;;;;12.95;8.52;;;26.40;59.10;;;;;;4899189;29;20036;-72
2022/08/16 12:13:00;;;;;;;14.98;9.05;;;26.40;59.10;;;;;;4915955;29;20111;-72
2022/08/16 12:15:26;;;;;;;12.73;8.77;;;26.40;58.10;;;;;;4915096;29;20449;-72
2022/08/16 12:17:53;;;;;;;11.32;8.60;;;26.40;58.50;;;;;;4914643;29;20024;-72
2022/08/16 12:20:24;;;;;;;12.75;8.35;;;26.40;58.50;;;;;;4915946;29;20028;-72
2022/08/16 12:22:54;;;;;;;10.50;7.80;;;26.40;58.30;;;;;;4915934;29;20400;-72
2022/08/16 12:25:22;;;;;;;11.85;8.13;;;26.50;58.00;;;;;;4898197;29;20386;-72
2022/08/16 12:27:49;;;;;;;12.82;7.72;;;26.50;57.70;;;;;;4915752;29;20035;-71
2022/08/16 12:30:18;;;;;;;9.85;7.63;;;26.50;57.30;;;;;;4956315;23;20558;-74
2022/08/16 12:32:45;;;;;;;13.40;7.90;;;26.60;58.00;;;;;;4954986;28;20126;-74
2022/08/16 12:35:16;;;;;;;12.63;7.72;;;26.40;57.50;;;;;;4974244;28;20477;-74
2022/08/16 12:37:44;;;;;;;14.50;8.07;;;26.40;57.20;;;;;;4959504;28;20121;-75
2022/08/16 12:40:13;;;;;;;10.82;7.53;;;26.40;57.30;;;;;;4991952;28;20034;-75